Time;durP1;ratioP1;P1;durP2;ratioP2;P2;SDS_P1;SDS_P2;PMS_P1;PMS_P2;Temp;Humidity;BMP_temperature;BMP_pressure;BME280_temperature;BME280_humidity;BME280_pressure;Samples;Min_cycle;Max_cycle;Signal;HPM_P1;HPM_P2
2021/07/29 00:02:04;;;;;;;7.07;6.37;;;;;;;;;;5076664;28;20531;-73
2021/07/29 00:04:31;;;;;;;12.43;6.03;;;;;;;;;;5076500;28;20446;-73
2021/07/29 00:06:59;;;;;;;7.97;6.10;;;;;;;;;;5076979;28;20440;-73
2021/07/29 00:09:26;;;;;;;7.70;6.90;;;;;;;;;;5076013;28;20476;-73
2021/07/29 00:11:53;;;;;;;7.83;6.50;;;;;;;;;;5076332;28;20928;-73
2021/07/29 00:14:20;;;;;;;10.90;7.20;;;;;;;;;;5076382;28;20444;-73
2021/07/29 00:16:51;;;;;;;7.80;6.60;;;;;;;;;;5076290;28;20540;-72
2021/07/29 00:19:18;;;;;;;8.90;6.90;;;;;;;;;;5075960;28;20507;-73
2021/07/29 00:21:45;;;;;;;8.60;6.30;;;;;;;;;;5075913;28;20946;-73
2021/07/29 00:24:13;;;;;;;10.83;7.23;;;;;;;;;;5076275;28;20775;-75
2021/07/29 00:26:40;;;;;;;13.50;7.23;;;;;;;;;;5076260;28;20464;-73
2021/07/29 00:29:08;;;;;;;11.10;7.47;;;;;;;;;;5076048;28;20492;-73
2021/07/29 00:31:36;;;;;;;9.40;6.63;;;;;;;;;;5075459;28;20446;-73
2021/07/29 00:34:04;;;;;;;12.80;7.00;;;;;;;;;;5075982;28;20438;-73
2021/07/29 00:36:32;;;;;;;13.90;6.90;;;;;;;;;;5076197;28;20537;-74
2021/07/29 00:39:00;;;;;;;8.53;7.50;;;;;;;;;;5075898;28;21027;-73
2021/07/29 00:41:27;;;;;;;7.73;6.80;;;;;;;;;;5075834;28;20537;-74
2021/07/29 00:44:01;;;;;;;12.30;7.20;;;;;;;;;;5075493;28;20444;-74
2021/07/29 00:46:29;;;;;;;9.80;7.40;;;;;;;;;;5075482;28;20946;-73
2021/07/29 00:48:57;;;;;;;10.80;7.87;;;;;;;;;;5075940;28;20447;-73
2021/07/29 00:51:25;;;;;;;6.90;6.20;;;;;;;;;;5075694;28;20459;-73
2021/07/29 00:53:54;;;;;;;9.10;6.33;;;;;;;;;;5075292;28;20866;-73
2021/07/29 00:56:21;;;;;;;9.83;6.90;;;;;;;;;;5075514;28;20441;-73
2021/07/29 00:58:49;;;;;;;7.60;6.47;;;;;;;;;;5075179;28;20437;-73
2021/07/29 01:01:16;;;;;;;8.10;6.90;;;;;;;;;;5075137;28;20994;-73
2021/07/29 01:03:43;;;;;;;8.93;6.97;;;;;;;;;;5075864;28;20468;-73
2021/07/29 01:06:10;;;;;;;6.93;6.17;;;;;;;;;;5075088;28;20450;-73
2021/07/29 01:08:52;;;;;;;8.13;5.77;;;;;;;;;;5074968;28;20441;-73
2021/07/29 01:11:21;;;;;;;7.40;6.07;;;;;;;;;;5074271;28;20794;-73
2021/07/29 01:13:48;;;;;;;7.90;5.50;;;;;;;;;;5075191;28;20444;-73
2021/07/29 01:16:15;;;;;;;7.77;5.40;;;;;;;;;;5075699;28;20441;-73
2021/07/29 01:18:42;;;;;;;8.00;5.43;;;;;;;;;;5075277;28;20475;-73
2021/07/29 01:21:11;;;;;;;7.20;5.50;;;;;;;;;;5074729;28;20950;-73
2021/07/29 01:23:38;;;;;;;5.87;5.27;;;;;;;;;;5075395;28;20444;-73
2021/07/29 01:26:05;;;;;;;6.73;5.97;;;;;;;;;;5074951;28;20448;-77
2021/07/29 01:28:32;;;;;;;5.90;5.10;;;;;;;;;;5074595;28;20444;-73
2021/07/29 01:30:59;;;;;;;5.70;5.07;;;;;;;;;;5074528;28;20483;-72
2021/07/29 01:33:27;;;;;;;11.57;5.43;;;;;;;;;;5074810;28;20437;-73
2021/07/29 01:35:54;;;;;;;7.17;4.97;;;;;;;;;;5075359;28;20469;-72
2021/07/29 01:38:22;;;;;;;5.20;4.60;;;;;;;;;;5074576;28;20469;-73
2021/07/29 01:40:50;;;;;;;6.67;5.37;;;;;;;;;;5074318;28;20444;-73
2021/07/29 01:43:17;;;;;;;7.80;5.50;;;;;;;;;;5074341;28;20922;-73
2021/07/29 01:45:45;;;;;;;7.17;4.80;;;;;;;;;;5074819;28;20446;-73
2021/07/29 01:48:12;;;;;;;6.20;5.00;;;;;;;;;;5074506;28;20452;-73
2021/07/29 01:50:39;;;;;;;9.43;4.80;;;;;;;;;;5074754;28;20481;-73
2021/07/29 01:53:07;;;;;;;4.30;3.90;;;;;;;;;;5074402;28;20536;-72
2021/07/29 01:55:35;;;;;;;5.60;5.10;;;;;;;;;;5074351;28;20436;-73
2021/07/29 01:58:02;;;;;;;6.53;4.47;;;;;;;;;;5073990;28;20449;-73
2021/07/29 02:00:30;;;;;;;5.40;4.40;;;;;;;;;;5073871;28;20452;-73
2021/07/29 02:02:57;;;;;;;6.03;5.30;;;;;;;;;;5074384;28;20431;-73
2021/07/29 02:05:24;;;;;;;5.47;4.50;;;;;;;;;;5074147;28;20451;-74
2021/07/29 02:07:51;;;;;;;5.60;4.40;;;;;;;;;;5074665;28;20446;-73
2021/07/29 02:10:18;;;;;;;6.37;4.30;;;;;;;;;;5074337;28;20844;-73
2021/07/29 02:12:47;;;;;;;4.87;4.07;;;;;;;;;;5073913;28;20441;-73
2021/07/29 02:15:14;;;;;;;5.23;4.73;;;;;;;;;;5074011;28;20443;-72
2021/07/29 02:17:41;;;;;;;4.57;3.67;;;;;;;;;;5073807;28;20441;-73
2021/07/29 02:20:09;;;;;;;5.00;4.13;;;;;;;;;;5073665;28;20450;-73
2021/07/29 02:22:36;;;;;;;7.53;4.83;;;;;;;;;;5073905;28;20520;-74
2021/07/29 02:25:04;;;;;;;4.33;3.93;;;;;;;;;;5073594;28;20443;-75
2021/07/29 02:27:31;;;;;;;9.47;4.60;;;;;;;;;;5073864;28;20488;-73
2021/07/29 02:30:00;;;;;;;5.53;3.50;;;;;;;;;;5073746;28;20473;-74
2021/07/29 02:32:27;;;;;;;4.43;4.03;;;;;;;;;;5073537;28;20535;-75
2021/07/29 02:34:54;;;;;;;5.67;3.13;;;;;;;;;;5073548;28;20486;-75
2021/07/29 02:37:22;;;;;;;4.63;4.10;;;;;;;;;;5073678;28;20448;-76
2021/07/29 02:39:49;;;;;;;6.43;3.60;;;;;;;;;;5073537;28;20473;-74
2021/07/29 02:42:17;;;;;;;4.00;3.57;;;;;;;;;;5073600;28;20448;-75
2021/07/29 02:44:44;;;;;;;4.70;4.27;;;;;;;;;;5073356;28;20443;-75
2021/07/29 02:47:13;;;;;;;4.80;3.70;;;;;;;;;;5073508;28;20440;-75
2021/07/29 02:49:40;;;;;;;4.53;4.13;;;;;;;;;;5073789;28;20436;-75
2021/07/29 02:52:08;;;;;;;5.60;4.23;;;;;;;;;;5073307;28;20935;-75
2021/07/29 02:54:35;;;;;;;5.40;4.33;;;;;;;;;;5072991;28;21009;-75
2021/07/29 02:57:02;;;;;;;5.23;4.40;;;;;;;;;;5073254;28;20446;-75
2021/07/29 02:59:29;;;;;;;6.90;3.93;;;;;;;;;;5073711;28;20445;-75
2021/07/29 03:01:57;;;;;;;5.57;3.73;;;;;;;;;;5073500;28;20438;-72
2021/07/29 03:04:25;;;;;;;4.30;3.90;;;;;;;;;;5074219;28;20441;-74
2021/07/29 03:06:54;;;;;;;6.47;4.70;;;;;;;;;;5073711;28;20468;-74
2021/07/29 03:09:21;;;;;;;4.40;3.90;;;;;;;;;;5073119;28;20452;-74
2021/07/29 03:11:48;;;;;;;5.40;4.20;;;;;;;;;;5073003;28;21011;-74
2021/07/29 03:14:19;;;;;;;7.47;4.53;;;;;;;;;;5073374;28;20441;-74
2021/07/29 03:16:46;;;;;;;5.00;3.53;;;;;;;;;;5073418;28;20445;-70
2021/07/29 03:19:13;;;;;;;6.90;4.27;;;;;;;;;;5073900;28;20948;-73
2021/07/29 03:21:41;;;;;;;6.27;4.10;;;;;;;;;;5073417;28;20451;-74
2021/07/29 03:24:09;;;;;;;3.47;3.17;;;;;;;;;;5073478;28;20543;-72
2021/07/29 03:26:36;;;;;;;7.10;4.30;;;;;;;;;;5073229;28;20446;-75
2021/07/29 03:29:03;;;;;;;4.57;4.10;;;;;;;;;;5073227;28;20441;-74
2021/07/29 03:31:30;;;;;;;4.83;4.40;;;;;;;;;;5073131;28;20473;-77
2021/07/29 03:33:57;;;;;;;5.73;3.90;;;;;;;;;;5072860;28;20445;-75
2021/07/29 03:36:25;;;;;;;9.47;4.83;;;;;;;;;;5072820;28;20942;-75
2021/07/29 03:38:53;;;;;;;4.97;4.40;;;;;;;;;;5072816;28;20474;-77
2021/07/29 03:41:20;;;;;;;4.17;3.80;;;;;;;;;;5073136;28;20443;-77
2021/07/29 03:43:47;;;;;;;4.50;4.10;;;;;;;;;;5073076;28;20445;-77
2021/07/29 03:46:15;;;;;;;4.70;4.30;;;;;;;;;;5073048;28;20444;-77
2021/07/29 03:48:42;;;;;;;7.80;3.73;;;;;;;;;;5073215;28;20451;-76
2021/07/29 03:51:13;;;;;;;6.37;4.13;;;;;;;;;;5072976;28;21059;-76
2021/07/29 03:53:40;;;;;;;4.80;4.30;;;;;;;;;;5073316;28;20431;-75
2021/07/29 03:56:10;;;;;;;4.60;3.50;;;;;;;;;;5073332;28;20843;-79
2021/07/29 03:58:37;;;;;;;6.20;3.73;;;;;;;;;;5073232;28;20447;-77
2021/07/29 04:01:07;;;;;;;6.40;4.33;;;;;;;;;;5072637;28;20448;-76
2021/07/29 04:03:34;;;;;;;9.03;3.73;;;;;;;;;;5072651;28;20519;-77
2021/07/29 04:06:01;;;;;;;5.80;3.87;;;;;;;;;;5073189;28;20441;-76
2021/07/29 04:08:28;;;;;;;4.73;3.27;;;;;;;;;;5076415;28;20463;-76
2021/07/29 04:10:58;;;;;;;4.10;3.80;;;;;;;;;;5076317;28;20479;-77
2021/07/29 04:13:27;;;;;;;4.40;3.60;;;;;;;;;;5076442;28;20434;-73
2021/07/29 04:15:59;;;;;;;5.57;3.60;;;;;;;;;;5076386;28;20441;-77
2021/07/29 04:18:27;;;;;;;6.27;4.60;;;;;;;;;;5076147;28;20453;-77
2021/07/29 04:20:54;;;;;;;4.53;3.80;;;;;;;;;;5076234;28;20478;-76
2021/07/29 04:23:21;;;;;;;6.20;4.30;;;;;;;;;;5077100;28;20537;-77
2021/07/29 04:25:48;;;;;;;7.17;4.37;;;;;;;;;;5075999;28;20525;-76
2021/07/29 04:28:15;;;;;;;6.57;3.90;;;;;;;;;;5068620;28;20452;-77
2021/07/29 04:30:44;;;;;;;4.83;4.33;;;;;;;;;;5071439;28;20475;-78
2021/07/29 04:33:11;;;;;;;9.23;4.63;;;;;;;;;;5076069;28;20545;-77
2021/07/29 04:35:39;;;;;;;5.27;4.37;;;;;;;;;;5075569;28;20444;-77
2021/07/29 04:38:06;;;;;;;6.20;4.57;;;;;;;;;;5075509;28;20470;-78
2021/07/29 04:40:33;;;;;;;4.13;3.60;;;;;;;;;;5075509;28;20454;-76
2021/07/29 04:43:01;;;;;;;8.00;4.77;;;;;;;;;;5075850;28;20536;-76
2021/07/29 04:45:28;;;;;;;6.20;4.13;;;;;;;;;;5075853;28;20939;-75
2021/07/29 04:47:56;;;;;;;5.97;4.40;;;;;;;;;;5075595;28;20448;-75
2021/07/29 04:50:24;;;;;;;7.23;4.47;;;;;;;;;;5075344;28;20947;-77
2021/07/29 04:52:52;;;;;;;9.87;4.60;;;;;;;;;;5075736;28;20494;-76
2021/07/29 04:55:20;;;;;;;6.50;5.07;;;;;;;;;;5076127;28;20500;-74
2021/07/29 04:57:47;;;;;;;8.30;4.50;;;;;;;;;;5075949;28;20442;-74
2021/07/29 05:00:14;;;;;;;8.67;5.10;;;;;;;;;;5075514;28;20437;-74
2021/07/29 05:02:41;;;;;;;10.33;5.13;;;;;;;;;;5075852;28;20528;-76
2021/07/29 05:05:11;;;;;;;8.63;4.77;;;;;;;;;;5074999;28;20521;-75
2021/07/29 05:07:38;;;;;;;6.60;4.30;;;;;;;;;;5074972;28;20479;-76
2021/07/29 05:10:06;;;;;;;8.37;4.50;;;;;;;;;;5075366;28;20539;-75
2021/07/29 05:12:33;;;;;;;8.43;4.67;;;;;;;;;;5076092;28;20576;-74
2021/07/29 05:15:00;;;;;;;5.03;4.60;;;;;;;;;;5075455;28;20448;-73
2021/07/29 05:17:27;;;;;;;6.47;4.33;;;;;;;;;;5075036;28;20448;-74
2021/07/29 05:19:54;;;;;;;7.13;4.00;;;;;;;;;;5075087;28;20442;-71
2021/07/29 05:22:23;;;;;;;7.50;4.40;;;;;;;;;;5075845;28;20456;-73
2021/07/29 05:24:50;;;;;;;4.73;4.17;;;;;;;;;;5075177;28;20445;-74
2021/07/29 05:27:17;;;;;;;8.80;4.00;;;;;;;;;;5074448;28;20485;-75
2021/07/29 05:29:46;;;;;;;7.73;4.43;;;;;;;;;;5074803;28;20445;-74
2021/07/29 05:32:13;;;;;;;6.47;3.90;;;;;;;;;;5074380;28;20468;-74
2021/07/29 05:34:40;;;;;;;5.87;4.10;;;;;;;;;;5074718;28;20441;-75
2021/07/29 05:37:07;;;;;;;7.63;4.30;;;;;;;;;;5074684;28;20449;-76
2021/07/29 05:39:36;;;;;;;6.77;4.20;;;;;;;;;;5075689;28;20477;-76
2021/07/29 05:42:03;;;;;;;5.90;4.30;;;;;;;;;;5074308;28;20457;-77
2021/07/29 05:44:30;;;;;;;9.33;4.17;;;;;;;;;;5074557;28;20462;-77
2021/07/29 05:47:03;;;;;;;7.27;4.17;;;;;;;;;;5074541;28;20468;-77
2021/07/29 05:49:30;;;;;;;9.80;4.80;;;;;;;;;;5074242;28;20427;-76
2021/07/29 05:51:57;;;;;;;7.83;4.50;;;;;;;;;;5074260;28;20476;-77
2021/07/29 05:54:24;;;;;;;11.13;4.60;;;;;;;;;;5074053;28;20454;-77
2021/07/29 05:56:53;;;;;;;11.80;4.13;;;;;;;;;;5074493;28;21024;-77
2021/07/29 05:59:20;;;;;;;6.90;4.50;;;;;;;;;;5074196;28;20433;-77
2021/07/29 06:01:47;;;;;;;6.40;3.60;;;;;;;;;;5073920;28;20447;-75
2021/07/29 06:04:14;;;;;;;8.33;4.07;;;;;;;;;;5074171;28;20452;-76
2021/07/29 06:06:41;;;;;;;6.23;3.90;;;;;;;;;;5073802;28;20450;-76
2021/07/29 06:09:08;;;;;;;9.40;5.03;;;;;;;;;;5074398;28;20437;-74
2021/07/29 06:11:36;;;;;;;5.20;4.03;;;;;;;;;;5073674;28;20470;-76
2021/07/29 06:14:04;;;;;;;6.50;3.40;;;;;;;;;;5073759;28;20450;-75
2021/07/29 06:16:31;;;;;;;5.67;3.70;;;;;;;;;;5074272;28;20519;-76
2021/07/29 06:19:07;;;;;;;3.83;3.20;;;;;;;;;;5073610;28;20483;-73
2021/07/29 06:21:35;;;;;;;5.90;3.50;;;;;;;;;;5073960;28;20468;-76
2021/07/29 06:24:02;;;;;;;5.60;2.90;;;;;;;;;;5073973;28;20527;-74
2021/07/29 06:26:29;;;;;;;7.00;3.70;;;;;;;;;;5074134;28;20847;-72
2021/07/29 06:28:57;;;;;;;8.70;2.97;;;;;;;;;;5073514;28;20437;-77
2021/07/29 06:31:25;;;;;;;9.20;3.53;;;;;;;;;;5073677;28;20995;-71
2021/07/29 06:33:52;;;;;;;3.67;3.33;;;;;;;;;;5073763;28;20438;-72
2021/07/29 06:36:19;;;;;;;6.47;3.87;;;;;;;;;;5073758;28;20433;-76
2021/07/29 06:38:47;;;;;;;7.27;3.50;;;;;;;;;;5074455;28;20473;-73
2021/07/29 06:41:14;;;;;;;8.27;3.90;;;;;;;;;;5074279;28;20441;-74
2021/07/29 06:43:41;;;;;;;7.17;3.20;;;;;;;;;;5073673;28;20444;-76
2021/07/29 06:46:09;;;;;;;8.53;4.43;;;;;;;;;;5073501;28;20530;-76
2021/07/29 06:48:38;;;;;;;4.97;3.40;;;;;;;;;;5073668;28;20453;-73
2021/07/29 06:51:05;;;;;;;4.20;3.80;;;;;;;;;;5073165;28;20449;-76
2021/07/29 06:53:32;;;;;;;10.43;3.50;;;;;;;;;;5073270;28;21029;-69
2021/07/29 06:56:00;;;;;;;5.83;3.80;;;;;;;;;;5073806;28;20444;-71
2021/07/29 06:58:27;;;;;;;4.43;3.00;;;;;;;;;;5073197;28;20447;-77
2021/07/29 07:00:55;;;;;;;3.67;3.27;;;;;;;;;;5073216;28;20938;-74
2021/07/29 07:03:22;;;;;;;4.50;2.63;;;;;;;;;;5073146;28;20953;-69
2021/07/29 07:05:50;;;;;;;9.73;3.13;;;;;;;;;;5073183;28;20450;-74
2021/07/29 07:08:17;;;;;;;4.80;2.90;;;;;;;;;;5073392;28;20436;-72
2021/07/29 07:10:45;;;;;;;8.33;2.63;;;;;;;;;;5073055;28;20537;-73
2021/07/29 07:13:12;;;;;;;5.03;2.93;;;;;;;;;;5073279;28;20481;-75
2021/07/29 07:15:39;;;;;;;4.73;3.00;;;;;;;;;;5073628;28;20800;-69
2021/07/29 07:18:06;;;;;;;4.37;2.77;;;;;;;;;;5073782;28;20450;-74
2021/07/29 07:20:33;;;;;;;4.03;3.40;;;;;;;;;;5072795;28;20448;-71
2021/07/29 07:23:02;;;;;;;9.30;3.10;;;;;;;;;;5073207;28;20448;-73
2021/07/29 07:25:29;;;;;;;7.30;3.30;;;;;;;;;;5073799;28;20912;-76
2021/07/29 07:27:56;;;;;;;6.73;3.20;;;;;;;;;;5073396;28;20532;-75
2021/07/29 07:30:23;;;;;;;5.33;2.70;;;;;;;;;;5073535;28;20446;-72
2021/07/29 07:32:50;;;;;;;6.77;2.93;;;;;;;;;;5073653;28;20474;-74
2021/07/29 07:35:18;;;;;;;4.83;2.17;;;;;;;;;;5072902;28;21038;-75
2021/07/29 07:37:45;;;;;;;5.20;2.83;;;;;;;;;;5073012;28;20572;-76
2021/07/29 07:40:14;;;;;;;6.57;2.33;;;;;;;;;;5073532;28;20425;-78
2021/07/29 07:42:43;;;;;;;4.03;2.50;;;;;;;;;;5075690;28;20463;-77
2021/07/29 07:45:11;;;;;;;4.97;2.30;;;;;;;;;;5076912;28;20543;-72
2021/07/29 07:47:38;;;;;;;9.77;3.10;;;;;;;;;;5076817;28;20474;-77
2021/07/29 07:50:05;;;;;;;4.63;3.57;;;;;;;;;;5076782;28;20436;-76
2021/07/29 07:52:32;;;;;;;3.17;2.50;;;;;;;;;;5076320;28;20473;-75
2021/07/29 07:55:00;;;;;;;10.23;3.03;;;;;;;;;;5076647;28;20448;-72
2021/07/29 07:57:28;;;;;;;4.13;3.23;;;;;;;;;;5076306;28;20482;-76
2021/07/29 07:59:58;;;;;;;4.67;2.57;;;;;;;;;;5076603;28;20447;-76
2021/07/29 08:02:25;;;;;;;8.47;3.70;;;;;;;;;;5076716;28;20456;-76
2021/07/29 08:04:53;;;;;;;4.43;2.20;;;;;;;;;;5076544;28;20446;-73
2021/07/29 08:07:20;;;;;;;5.63;2.30;;;;;;;;;;5077179;28;20808;-70
2021/07/29 08:09:48;;;;;;;3.93;2.30;;;;;;;;;;5076449;28;20445;-73
2021/07/29 08:12:15;;;;;;;3.67;2.57;;;;;;;;;;5076379;28;20493;-72
2021/07/29 08:14:44;;;;;;;5.80;2.40;;;;;;;;;;5076085;28;20450;-77
2021/07/29 08:17:11;;;;;;;4.50;3.73;;;;;;;;;;5076165;28;20482;-75
2021/07/29 08:19:38;;;;;;;5.23;2.57;;;;;;;;;;5075957;28;20894;-76
2021/07/29 08:22:05;;;;;;;5.97;2.50;;;;;;;;;;5075848;28;20450;-73
2021/07/29 08:24:34;;;;;;;6.90;2.97;;;;;;;;;;5076162;28;20795;-78
2021/07/29 08:27:01;;;;;;;4.33;2.33;;;;;;;;;;5075855;28;20450;-73
2021/07/29 08:29:30;;;;;;;2.40;2.20;;;;;;;;;;5076171;28;20530;-76
2021/07/29 08:31:58;;;;;;;5.83;2.20;;;;;;;;;;5075864;28;20998;-75
2021/07/29 08:34:26;;;;;;;4.90;2.13;;;;;;;;;;5075952;28;20525;-75
2021/07/29 08:36:53;;;;;;;3.33;2.50;;;;;;;;;;5076270;28;20445;-73
2021/07/29 08:39:20;;;;;;;3.93;2.23;;;;;;;;;;5076079;28;20476;-75
2021/07/29 08:41:47;;;;;;;4.00;2.17;;;;;;;;;;5076126;28;20939;-74
2021/07/29 08:44:15;;;;;;;3.43;2.00;;;;;;;;;;5076057;28;20442;-72
2021/07/29 08:46:45;;;;;;;5.60;2.40;;;;;;;;;;5076599;28;20450;-71
2021/07/29 08:49:15;;;;;;;2.70;2.33;;;;;;;;;;5076306;28;20445;-72
2021/07/29 08:51:42;;;;;;;3.53;2.30;;;;;;;;;;5075786;28;20433;-72
2021/07/29 08:54:12;;;;;;;3.07;1.90;;;;;;;;;;5075186;28;20482;-72
2021/07/29 08:56:40;;;;;;;2.93;2.60;;;;;;;;;;5075724;28;20520;-70
2021/07/29 08:59:08;;;;;;;7.53;2.37;;;;;;;;;;5075101;28;20444;-73
2021/07/29 09:01:44;;;;;;;2.33;2.10;;;;;;;;;;5075091;28;20449;-72
2021/07/29 09:04:13;;;;;;;5.17;2.50;;;;;;;;;;5075198;28;20934;-73
2021/07/29 09:06:54;;;;;;;7.70;2.20;;;;;;;;;;5075057;28;20552;-75
2021/07/29 09:09:36;;;;;;;5.50;2.50;;;;;;;;;;5075794;28;20450;-68
2021/07/29 09:12:14;;;;;;;5.53;2.60;;;;;;;;;;5075272;28;20983;-81
2021/07/29 09:14:41;;;;;;;3.90;2.30;;;;;;;;;;5074944;28;20436;-73
2021/07/29 09:17:08;;;;;;;4.50;2.90;;;;;;;;;;5075284;28;20473;-78
2021/07/29 09:19:37;;;;;;;5.80;3.07;;;;;;;;;;5075059;28;20452;-76
2021/07/29 09:22:17;;;;;;;6.33;2.47;;;;;;;;;;5075503;28;20458;-78
2021/07/29 09:25:01;;;;;;;6.53;2.20;;;;;;;;;;5074750;28;20457;-73
2021/07/29 09:27:29;;;;;;;5.80;2.63;;;;;;;;;;5075314;28;20428;-79
2021/07/29 09:30:09;;;;;;;3.10;2.40;;;;;;;;;;5074671;28;20942;-70
2021/07/29 09:32:36;;;;;;;5.43;3.30;;;;;;;;;;5075402;28;20469;-74
2021/07/29 09:35:05;;;;;;;4.63;3.07;;;;;;;;;;5074577;28;20447;-80
2021/07/29 09:37:33;;;;;;;3.47;2.40;;;;;;;;;;5074653;28;20446;-81
2021/07/29 09:40:00;;;;;;;2.80;2.30;;;;;;;;;;5075001;28;20436;-74
2021/07/29 09:42:28;;;;;;;8.80;3.27;;;;;;;;;;5074748;28;20525;-77
2021/07/29 09:44:56;;;;;;;4.23;2.17;;;;;;;;;;5074578;28;20444;-79
2021/07/29 09:47:24;;;;;;;6.80;2.57;;;;;;;;;;5074608;28;20509;-81
2021/07/29 09:49:52;;;;;;;3.87;2.60;;;;;;;;;;5074350;28;20516;-74
2021/07/29 09:52:21;;;;;;;6.90;2.70;;;;;;;;;;5074951;28;20482;-79
2021/07/29 09:54:48;;;;;;;6.07;3.23;;;;;;;;;;5074583;28;20442;-77
2021/07/29 09:57:17;;;;;;;5.10;2.63;;;;;;;;;;5074459;28;20447;-76
2021/07/29 09:59:44;;;;;;;11.50;2.93;;;;;;;;;;5074112;28;20448;-73
2021/07/29 10:02:12;;;;;;;7.67;2.83;;;;;;;;;;5074385;28;20444;-80
2021/07/29 10:04:41;;;;;;;2.53;2.30;;;;;;;;;;5073723;28;20434;-79
2021/07/29 10:07:11;;;;;;;3.73;2.30;;;;;;;;;;5074290;28;20540;-77
2021/07/29 10:09:46;;;;;;;5.37;2.77;;;;;;;;;;5074226;28;21012;-81
2021/07/29 10:12:15;;;;;;;5.90;3.20;;;;;;;;;;5074158;28;20533;-81
2021/07/29 10:14:52;;;;;;;6.40;2.77;;;;;;;;;;5073806;28;20452;-73
2021/07/29 10:17:19;;;;;;;5.90;2.33;;;;;;;;;;5073797;28;20438;-80
2021/07/29 10:20:05;;;;;;;6.80;2.73;;;;;;;;;;5074144;28;20438;-76
2021/07/29 10:22:32;;;;;;;7.13;3.13;;;;;;;;;;5074028;28;20474;-82
2021/07/29 10:25:01;;;;;;;4.47;2.23;;;;;;;;;;5074087;28;20461;-82
2021/07/29 10:27:28;;;;;;;6.17;2.73;;;;;;;;;;5074041;28;20445;-82
2021/07/29 10:30:15;;;;;;;4.60;2.30;;;;;;;;;;5074194;28;20454;-79
2021/07/29 10:32:46;;;;;;;7.00;2.70;;;;;;;;;;5074044;28;20834;-80
2021/07/29 10:35:28;;;;;;;5.10;2.40;;;;;;;;;;5073818;28;20432;-73
2021/07/29 10:37:55;;;;;;;4.37;3.03;;;;;;;;;;5073526;28;20480;-76
2021/07/29 10:40:33;;;;;;;7.57;2.90;;;;;;;;;;5073530;28;20454;-77
2021/07/29 10:43:15;;;;;;;8.30;2.90;;;;;;;;;;5073625;28;20433;-81
2021/07/29 10:45:49;;;;;;;6.90;2.70;;;;;;;;;;5073178;28;20435;-81
2021/07/29 10:48:31;;;;;;;4.60;2.93;;;;;;;;;;5074053;28;20446;-75
2021/07/29 10:51:11;;;;;;;6.07;2.77;;;;;;;;;;5072905;28;20876;-79
2021/07/29 10:53:39;;;;;;;7.33;2.80;;;;;;;;;;5074286;28;20468;-79
2021/07/29 10:56:08;;;;;;;13.40;2.70;;;;;;;;;;5073213;28;20439;-76
2021/07/29 10:58:40;;;;;;;5.90;2.80;;;;;;;;;;5073933;28;20457;-76
2021/07/29 11:01:07;;;;;;;10.70;4.00;;;;;;;;;;5073803;28;20451;-81
2021/07/29 11:03:34;;;;;;;2.63;2.10;;;;;;;;;;5073193;28;20924;-76
2021/07/29 11:06:07;;;;;;;7.67;2.73;;;;;;;;;;5073153;28;20482;-72
2021/07/29 11:08:35;;;;;;;7.83;3.33;;;;;;;;;;5073139;28;20910;-77
2021/07/29 11:11:03;;;;;;;4.17;2.47;;;;;;;;;;5073409;28;20494;-78
2021/07/29 11:13:32;;;;;;;10.10;3.37;;;;;;;;;;5072959;28;21010;-78
2021/07/29 11:16:02;;;;;;;8.23;3.27;;;;;;;;;;5075267;28;20443;-77
2021/07/29 11:18:29;;;;;;;11.87;2.80;;;;;;;;;;5077986;28;20449;-76
2021/07/29 11:20:56;;;;;;;8.90;3.40;;;;;;;;;;5077349;28;20440;-79
2021/07/29 11:23:33;;;;;;;8.63;3.80;;;;;;;;;;5077340;28;20547;-76
2021/07/29 11:26:01;;;;;;;4.83;2.70;;;;;;;;;;5077305;28;20977;-73
2021/07/29 11:28:28;;;;;;;9.90;3.17;;;;;;;;;;5077509;28;20440;-78
2021/07/29 11:30:57;;;;;;;5.13;2.90;;;;;;;;;;5077250;28;20450;-71
2021/07/29 11:33:25;;;;;;;12.93;3.20;;;;;;;;;;5077703;28;20476;-76
2021/07/29 11:35:52;;;;;;;3.13;2.40;;;;;;;;;;5077145;28;20446;-77
2021/07/29 11:38:20;;;;;;;4.03;2.20;;;;;;;;;;5076830;28;20560;-77
2021/07/29 11:40:48;;;;;;;6.87;2.17;;;;;;;;;;5077352;28;20448;-73
2021/07/29 11:43:22;;;;;;;4.83;2.77;;;;;;;;;;5077025;28;20536;-76
2021/07/29 11:45:49;;;;;;;3.70;2.60;;;;;;;;;;5076956;28;20442;-74
2021/07/29 11:48:24;;;;;;;10.87;2.60;;;;;;;;;;5076673;28;20456;-74
2021/07/29 11:50:52;;;;;;;8.23;2.80;;;;;;;;;;5077170;28;20544;-75
2021/07/29 11:53:19;;;;;;;9.03;2.90;;;;;;;;;;5076722;28;20481;-71
2021/07/29 11:55:56;;;;;;;4.70;2.53;;;;;;;;;;5076468;28;20461;-73
2021/07/29 11:58:25;;;;;;;3.70;2.17;;;;;;;;;;5076686;28;20450;-73
2021/07/29 12:00:54;;;;;;;16.93;3.93;;;;;;;;;;5076681;28;20452;-76
2021/07/29 12:03:31;;;;;;;10.50;3.60;;;;;;;;;;5076586;28;20499;-78
2021/07/29 12:05:59;;;;;;;6.23;2.63;;;;;;;;;;5076627;28;20436;-75
2021/07/29 12:08:27;;;;;;;6.10;2.80;;;;;;;;;;5076193;28;20497;-75
2021/07/29 12:10:55;;;;;;;4.40;2.80;;;;;;;;;;5076735;28;20445;-75
2021/07/29 12:13:23;;;;;;;3.63;2.07;;;;;;;;;;5076065;28;20481;-79
2021/07/29 12:15:50;;;;;;;3.50;2.30;;;;;;;;;;5076028;28;20508;-79
2021/07/29 12:18:18;;;;;;;2.50;2.30;;;;;;;;;;5076472;28;20469;-76
2021/07/29 12:20:47;;;;;;;8.00;3.07;;;;;;;;;;5075949;28;20447;-76
2021/07/29 12:23:16;;;;;;;4.00;2.00;;;;;;;;;;5076763;28;20474;-72
2021/07/29 12:25:43;;;;;;;4.40;2.50;;;;;;;;;;5075906;28;20949;-77
2021/07/29 12:28:10;;;;;;;5.40;2.50;;;;;;;;;;5074889;28;20941;-74
2021/07/29 12:30:39;;;;;;;3.60;2.50;;;;;;;;;;5075819;28;20445;-71
2021/07/29 12:33:07;;;;;;;5.20;2.60;;;;;;;;;;5075934;28;20510;-76
2021/07/29 12:35:34;;;;;;;4.40;2.37;;;;;;;;;;5076260;28;20443;-77
2021/07/29 12:38:03;;;;;;;5.13;2.33;;;;;;;;;;5076077;28;20474;-78
2021/07/29 12:40:32;;;;;;;5.30;2.40;;;;;;;;;;5076523;28;20457;-77
2021/07/29 12:43:18;;;;;;;7.20;2.80;;;;;;;;;;5075886;28;20496;-73
2021/07/29 12:45:49;;;;;;;6.30;2.30;;;;;;;;;;5075760;28;20447;-76
2021/07/29 12:48:16;;;;;;;3.73;2.67;;;;;;;;;;5075915;28;20447;-74
2021/07/29 12:50:43;;;;;;;4.57;2.30;;;;;;;;;;5075636;28;20534;-77
2021/07/29 12:53:12;;;;;;;6.60;2.80;;;;;;;;;;5075366;28;20978;-69
2021/07/29 12:55:40;;;;;;;9.63;3.00;;;;;;;;;;5075329;28;20961;-72
2021/07/29 12:58:08;;;;;;;3.87;2.57;;;;;;;;;;5075357;28;20453;-71
2021/07/29 13:00:38;;;;;;;4.90;2.40;;;;;;;;;;5075302;28;20453;-70
2021/07/29 13:03:15;;;;;;;4.10;2.30;;;;;;;;;;5075193;28;20438;-72
2021/07/29 13:05:43;;;;;;;7.83;3.20;;;;;;;;;;5076024;28;20430;-74
2021/07/29 13:08:10;;;;;;;6.10;2.93;;;;;;;;;;5075158;28;20459;-75
2021/07/29 13:10:39;;;;;;;4.30;2.17;;;;;;;;;;5075304;28;20446;-76
2021/07/29 13:13:06;;;;;;;3.70;2.60;;;;;;;;;;5075789;28;20826;-76
2021/07/29 13:15:33;;;;;;;6.27;2.77;;;;;;;;;;5070278;28;20454;-78
2021/07/29 13:18:00;;;;;;;8.67;3.10;;;;;;;;;;5068451;28;20777;-74
2021/07/29 13:20:28;;;;;;;3.50;2.57;;;;;;;;;;5074991;28;20450;-71
2021/07/29 13:22:55;;;;;;;4.00;2.10;;;;;;;;;;5075097;28;20800;-71
2021/07/29 13:25:22;;;;;;;8.93;3.00;;;;;;;;;;5075004;28;20448;-73
2021/07/29 13:27:51;;;;;;;4.53;2.30;;;;;;;;;;5074924;28;20801;-69
2021/07/29 13:30:18;;;;;;;6.20;2.60;;;;;;;;;;5075022;28;20982;-73
2021/07/29 13:32:45;;;;;;;7.17;2.60;;;;;;;;;;5075023;28;20434;-75
2021/07/29 13:35:13;;;;;;;3.70;2.70;;;;;;;;;;5074714;28;20490;-70
2021/07/29 13:37:40;;;;;;;9.10;3.17;;;;;;;;;;5074175;28;20479;-73
2021/07/29 13:40:08;;;;;;;3.73;2.77;;;;;;;;;;5075225;28;20508;-75
2021/07/29 13:42:35;;;;;;;6.90;2.70;;;;;;;;;;5074545;28;20527;-71
2021/07/29 13:45:19;;;;;;;2.47;2.27;;;;;;;;;;5073997;28;20452;-72
2021/07/29 13:47:47;;;;;;;5.30;2.53;;;;;;;;;;5074420;28;20448;-71
2021/07/29 13:50:14;;;;;;;4.10;2.57;;;;;;;;;;5074545;28;20493;-72
2021/07/29 13:52:41;;;;;;;4.57;3.30;;;;;;;;;;5074201;28;20448;-69
2021/07/29 13:55:09;;;;;;;8.87;3.10;;;;;;;;;;5074235;28;20639;-72
2021/07/29 13:57:36;;;;;;;5.13;2.93;;;;;;;;;;5073938;28;20458;-68
2021/07/29 14:00:06;;;;;;;5.27;3.00;;;;;;;;;;5074211;28;20440;-72
2021/07/29 14:02:34;;;;;;;9.40;3.93;;;;;;;;;;5074241;28;20441;-71
2021/07/29 14:05:01;;;;;;;4.73;2.90;;;;;;;;;;5074112;28;20927;-69
2021/07/29 14:07:29;;;;;;;8.93;3.43;;;;;;;;;;5074116;28;20529;-70
2021/07/29 14:09:56;;;;;;;2.50;2.30;;;;;;;;;;5073961;28;20446;-68
2021/07/29 14:12:25;;;;;;;5.10;2.73;;;;;;;;;;5074125;28;20441;-70
2021/07/29 14:14:53;;;;;;;5.47;3.30;;;;;;;;;;5073953;28;20482;-73
2021/07/29 14:17:26;;;;;;;3.30;2.40;;;;;;;;;;5073740;28;20528;-71
2021/07/29 14:20:05;;;;;;;4.90;2.97;;;;;;;;;;5074177;28;20471;-71
2021/07/29 14:25:17;;;;;;;3.43;3.10;;;;;;;;;;5074022;28;20414;-72
2021/07/29 14:27:44;;;;;;;7.83;3.33;;;;;;;;;;5073604;28;20457;-73
2021/07/29 14:30:12;;;;;;;5.40;2.67;;;;;;;;;;5073809;28;20447;-71
2021/07/29 14:32:41;;;;;;;3.80;2.93;;;;;;;;;;5073818;28;20471;-72
2021/07/29 14:35:09;;;;;;;4.03;2.63;;;;;;;;;;5073698;28;20522;-72
2021/07/29 14:37:36;;;;;;;4.37;2.47;;;;;;;;;;5073209;28;20531;-74
2021/07/29 14:40:04;;;;;;;4.40;3.20;;;;;;;;;;5073875;28;20480;-74
2021/07/29 14:42:31;;;;;;;3.13;2.53;;;;;;;;;;5073700;28;20447;-74
2021/07/29 14:45:00;;;;;;;5.67;2.83;;;;;;;;;;5073173;28;20934;-76
2021/07/29 14:50:14;;;;;;;4.30;2.67;;;;;;;;;;5073076;28;20963;-69
2021/07/29 14:52:41;;;;;;;5.63;2.80;;;;;;;;;;5074016;28;20448;-74
2021/07/29 14:55:11;;;;;;;4.47;2.40;;;;;;;;;;5073090;28;20473;-71
2021/07/29 16:09:11;;;;;;;4.17;2.60;;;;;;;;;;5056256;28;20426;-74